Time;durP1;ratioP1;P1;durP2;ratioP2;P2;SDS_P1;SDS_P2;PMS_P1;PMS_P2;Temp;Humidity;BMP_temperature;BMP_pressure;BME280_temperature;BME280_humidity;BME280_pressure;Samples;Min_cycle;Max_cycle;Signal;HPM_P1;HPM_P2
2022/01/20 00:00:44;;;;;;;;;42.00;33.33;;;;;6.63;100.00;102541.66;5117619;27;44902;-84
2022/01/20 00:03:14;;;;;;;;;32.50;28.00;;;;;6.62;100.00;102538.16;5118158;27;45410;-83
2022/01/20 00:08:28;;;;;;;;;35.33;34.00;;;;;6.63;100.00;102547.81;5123829;27;44919;-82
2022/01/20 00:27:19;;;;;;;;;43.67;36.67;;;;;6.62;100.00;102555.75;5117519;27;45418;-83
2022/01/20 00:32:50;;;;;;;;;45.00;35.67;;;;;6.54;100.00;102547.13;5120082;27;45376;-83
2022/01/20 00:37:42;;;;;;;;;31.00;29.33;;;;;6.49;100.00;102525.25;5120798;27;45327;-84
2022/01/20 00:40:08;;;;;;;;;36.33;33.00;;;;;6.47;100.00;102525.25;5122211;27;45086;-84
2022/01/20 00:42:34;;;;;;;;;43.00;36.67;;;;;6.42;100.00;102528.00;5122664;27;44791;-83
2022/01/20 00:45:01;;;;;;;;;42.00;37.00;;;;;6.39;100.00;102522.78;5122423;27;45416;-83
2022/01/20 00:47:26;;;;;;;;;42.67;37.33;;;;;6.37;100.00;102527.22;5121648;27;44846;-82
2022/01/20 00:49:52;;;;;;;;;45.33;35.67;;;;;6.36;100.00;102538.69;5120982;27;45251;-82
2022/01/20 00:52:17;;;;;;;;;53.67;43.33;;;;;6.34;100.00;102535.22;5103305;27;44832;-83
2022/01/20 00:54:42;;;;;;;;;50.33;40.33;;;;;6.35;100.00;102529.03;5121429;27;44850;-83
2022/01/20 00:57:08;;;;;;;;;52.67;42.00;;;;;6.33;100.00;102529.94;5119610;27;45203;-83
2022/01/20 00:59:34;;;;;;;;;51.67;43.67;;;;;6.27;100.00;102540.63;5117797;27;45447;-84
2022/01/20 01:02:02;;;;;;;;;59.67;48.00;;;;;6.26;100.00;102531.84;5124210;27;44679;-82
2022/01/20 01:04:28;;;;;;;;;53.67;46.33;;;;;6.28;100.00;102523.91;5125915;27;44787;-83
2022/01/20 01:09:29;;;;;;;;;58.67;44.67;;;;;6.22;100.00;102539.84;5126676;27;45195;-83
2022/01/20 01:12:00;;;;;;;;;51.33;40.00;;;;;6.20;100.00;102542.53;5125669;27;45222;-83
2022/01/20 01:14:28;;;;;;;;;58.00;44.67;;;;;6.17;100.00;102539.94;5125151;27;45320;-82
2022/01/20 01:24:38;;;;;;;;;49.00;37.00;;;;;6.11;100.00;102538.31;5120319;27;45291;-82
2022/01/20 01:27:04;;;;;;;;;46.67;36.00;;;;;6.09;100.00;102549.78;5120734;27;45362;-82
2022/01/20 01:32:18;;;;;;;;;26.00;20.00;;;;;6.04;100.00;102563.06;5123665;27;44783;-82
2022/01/20 01:34:49;;;;;;;;;36.00;34.00;;;;;6.05;100.00;102559.53;5128920;27;44857;-82
2022/01/20 01:40:03;;;;;;;;;27.00;25.67;;;;;5.99;100.00;102557.00;5120656;27;45291;-83
2022/01/20 01:42:36;;;;;;;;;31.00;30.67;;;;;5.96;100.00;102569.38;5101792;27;45478;-83
2022/01/20 01:45:15;;;;;;;;;28.00;25.33;;;;;5.93;100.00;102565.03;5120178;27;44716;-82
2022/01/20 01:47:40;;;;;;;;;20.00;20.00;;;;;5.92;100.00;102572.06;5121182;27;45369;-82
2022/01/20 01:50:07;;;;;;;;;21.75;18.00;;;;;5.92;100.00;102572.06;5122620;27;45288;-81
2022/01/20 01:52:33;;;;;;;;;22.75;20.25;;;;;5.91;100.00;102577.34;5123510;27;44732;-83
2022/01/20 01:54:58;;;;;;;;;24.67;20.67;;;;;5.87;100.00;102584.44;5121798;27;45369;-82
2022/01/20 01:57:25;;;;;;;;;25.00;19.50;;;;;5.85;100.00;102590.63;5120296;27;44897;-82
2022/01/20 01:59:51;;;;;;;;;23.00;17.50;;;;;5.85;100.00;102599.44;5119208;27;45495;-82
2022/01/20 02:02:17;;;;;;;;;19.00;16.00;;;;;5.81;100.00;102600.38;5119818;27;44839;-82
2022/01/20 02:04:43;;;;;;;;;18.00;12.75;;;;;5.80;100.00;102609.19;5121149;27;44779;-82
2022/01/20 02:20:43;;;;;;;;;21.50;17.25;;;;;5.72;100.00;102615.50;5119420;27;45426;-83
2022/01/20 02:23:08;;;;;;;;;21.25;16.50;;;;;5.71;100.00;102619.91;5119476;27;45441;-83
2022/01/20 02:25:36;;;;;;;;;22.00;20.67;;;;;5.70;100.00;102614.63;5119608;27;45422;-83
2022/01/20 02:28:05;;;;;;;;;17.67;16.33;;;;;5.68;100.00;102618.16;5119578;27;44798;-82
2022/01/20 02:30:32;;;;;;;;;15.25;13.50;;;;;5.66;100.00;102608.56;5118966;27;45451;-83
2022/01/20 02:33:01;;;;;;;;;21.00;17.00;;;;;5.63;100.00;102620.00;5118111;27;44752;-81
2022/01/20 02:35:31;;;;;;;;;24.00;18.67;;;;;5.56;100.00;102625.38;5101384;27;44749;-83
2022/01/20 02:38:04;;;;;;;;;22.25;19.25;;;;;5.58;100.00;102631.53;5120040;27;45400;-83
2022/01/20 02:46:05;;;;;;;;;16.50;13.00;;;;;5.49;100.00;102616.72;5119132;27;44970;-80
2022/01/20 02:48:30;;;;;;;;;12.75;12.25;;;;;5.49;100.00;102607.94;5118519;27;45522;-81
2022/01/20 02:50:57;;;;;;;;;13.50;10.75;;;;;5.47;100.00;102609.75;5118589;27;45257;-82
2022/01/20 02:53:23;;;;;;;;;20.00;9.25;;;;;5.45;100.00;102596.56;5118735;27;45400;-80
2022/01/20 02:55:48;;;;;;;;;24.00;15.50;;;;;5.39;100.00;102600.16;5118823;27;44891;-80
2022/01/20 02:58:13;;;;;;;;;19.25;17.50;;;;;5.37;100.00;102601.09;5118495;27;44818;-80
2022/01/20 03:00:39;;;;;;;;;12.00;12.00;;;;;5.33;100.00;102602.91;5099962;27;45197;-81
2022/01/20 03:03:04;;;;;;;;;22.00;17.00;;;;;5.29;100.00;102592.44;5118188;27;44811;-81
2022/01/20 03:05:33;;;;;;;;;22.75;18.50;;;;;5.28;100.00;102598.59;5118625;27;45161;-80
2022/01/20 03:08:00;;;;;;;;;12.75;10.75;;;;;5.26;100.00;102600.38;5118480;27;45413;-81
2022/01/20 03:10:26;;;;;;;;;13.50;13.50;;;;;5.26;100.00;102603.88;5099938;27;46640;-80
2022/01/20 03:12:52;;;;;;;;;15.00;12.75;;;;;5.23;100.00;102603.06;5123262;27;45468;-81
2022/01/20 03:15:17;;;;;;;;;12.00;11.00;;;;;5.24;100.00;102602.19;5106751;27;45365;-82
2022/01/20 03:17:43;;;;;;;;;19.50;15.00;;;;;5.23;100.00;102603.06;5120793;27;45384;-79
2022/01/20 03:20:09;;;;;;;;;15.50;12.25;;;;;5.20;100.00;102621.56;5119820;27;44961;-81
2022/01/20 03:22:34;;;;;;;;;16.25;14.50;;;;;5.17;100.00;102611.91;5119792;27;44865;-80
2022/01/20 03:25:00;;;;;;;;;14.50;11.75;;;;;5.16;100.00;102618.06;5118723;27;45390;-80
2022/01/20 03:27:25;;;;;;;;;11.25;10.00;;;;;5.18;100.00;102621.59;5100153;27;44855;-80
2022/01/20 03:29:51;;;;;;;;;11.00;10.50;;;;;5.15;100.00;102625.13;5118213;27;45320;-81
2022/01/20 03:32:16;;;;;;;;;9.25;9.25;;;;;5.15;100.00;102629.50;5118395;27;45400;-81
2022/01/20 03:34:42;;;;;;;;;14.00;12.00;;;;;5.14;100.00;102627.78;5118794;27;44889;-81
2022/01/20 03:37:07;;;;;;;;;8.75;8.75;;;;;5.12;100.00;102622.50;5100508;27;44992;-82
2022/01/20 03:39:33;;;;;;;;;15.00;9.25;;;;;5.12;100.00;102629.53;5099767;27;45414;-81
2022/01/20 03:41:58;;;;;;;;;11.25;8.25;;;;;5.11;100.00;102631.31;5120215;27;44744;-82
2022/01/20 03:44:24;;;;;;;;;8.50;7.00;;;;;5.07;100.00;102624.34;5122002;27;45210;-83
2022/01/20 03:46:49;;;;;;;;;15.50;10.00;;;;;5.08;100.00;102638.41;5103076;27;44884;-83
2022/01/20 03:49:27;;;;;;;;;19.25;9.75;;;;;5.07;100.00;102618.19;5108892;27;46554;-82
2022/01/20 03:51:54;;;;;;;;;9.25;9.25;;;;;5.06;100.00;102616.47;5101660;27;45185;-84
2022/01/20 03:54:20;;;;;;;;;9.00;8.50;;;;;5.02;100.00;102617.41;5120189;27;45341;-83
2022/01/20 03:56:46;;;;;;;;;9.75;9.25;;;;;5.04;100.00;102637.56;5122104;27;44928;-84
2022/01/20 03:59:11;;;;;;;;;12.00;10.25;;;;;5.04;100.00;102631.44;5120875;27;44981;-83
2022/01/20 04:01:37;;;;;;;;;15.75;11.75;;;;;5.04;100.00;102624.41;5119611;27;44790;-83
2022/01/20 04:04:02;;;;;;;;;14.00;8.75;;;;;5.06;100.00;102632.28;5101750;27;45193;-82
2022/01/20 04:06:28;;;;;;;;;14.50;9.50;;;;;5.02;100.00;102636.69;5120054;27;44874;-83
2022/01/20 04:08:54;;;;;;;;;13.25;10.00;;;;;5.01;100.00;102642.00;5119484;27;45160;-84
2022/01/20 04:11:25;;;;;;;;;9.00;8.25;;;;;5.00;100.00;102642.91;5119594;27;45325;-83
2022/01/20 04:13:52;;;;;;;;;13.25;8.25;;;;;4.97;100.00;102637.66;5100589;27;44870;-83
2022/01/20 04:16:35;;;;;;;;;14.00;10.75;;;;;4.98;100.00;102647.28;5122062;27;44871;-83
2022/01/20 04:19:07;;;;;;;;;14.00;10.50;;;;;5.00;100.00;102646.41;5123416;27;45379;-81
2022/01/20 04:21:33;;;;;;;;;15.50;12.00;;;;;4.98;100.00;102660.47;5128061;27;44682;-84
2022/01/20 04:24:00;;;;;;;;;7.00;4.25;;;;;4.95;100.00;102664.03;5121929;27;44774;-84
2022/01/20 04:26:26;;;;;;;;;19.25;13.75;;;;;4.95;100.00;102666.66;5117406;27;45305;-84
2022/01/20 04:28:56;;;;;;;;;8.75;5.50;;;;;4.95;100.00;102657.88;5117449;27;45152;-83
2022/01/20 04:31:23;;;;;;;;;11.25;10.00;;;;;4.92;100.00;102655.28;5117634;27;45556;-84
2022/01/20 04:33:48;;;;;;;;;12.50;10.75;;;;;4.91;100.00;102657.03;5117510;27;44797;-83
2022/01/20 04:36:14;;;;;;;;;12.00;9.00;;;;;4.92;100.00;102658.78;5116581;27;45536;-84
2022/01/20 04:38:40;;;;;;;;;17.25;10.25;;;;;4.92;100.00;102656.16;5116656;27;45441;-83
2022/01/20 04:41:05;;;;;;;;;11.50;8.25;;;;;4.89;100.00;102659.72;5098339;27;44958;-83
2022/01/20 04:43:30;;;;;;;;;15.25;8.75;;;;;4.87;100.00;102652.72;5117490;27;44842;-83
2022/01/20 04:46:09;;;;;;;;;9.75;8.50;;;;;4.87;100.00;102664.09;5117555;27;44823;-84
2022/01/20 04:49:04;;;;;;;;;10.50;10.00;;;;;4.83;100.00;102670.28;5117117;27;45333;-83
2022/01/20 04:57:17;;;;;;;;;14.25;9.00;;;;;4.78;100.00;102680.00;5124331;27;45314;-83
2022/01/20 04:59:44;;;;;;;;;14.50;10.50;;;;;4.76;100.00;102675.66;5117213;27;45023;-82
2022/01/20 05:02:10;;;;;;;;;9.75;9.75;;;;;4.73;100.00;102673.94;5116985;27;44743;-83
2022/01/20 05:04:36;;;;;;;;;13.50;10.00;;;;;4.76;100.00;102679.16;5117445;27;44765;-83
2022/01/20 05:07:01;;;;;;;;;12.75;9.75;;;;;4.76;100.00;102671.28;5117153;27;45148;-82
2022/01/20 05:09:27;;;;;;;;;13.33;7.00;;;;;4.76;100.00;102667.78;5116857;27;45398;-83
2022/01/20 05:12:11;;;;;;;;;7.00;7.00;;;;;4.76;100.00;102665.13;5116996;27;44843;-83
2022/01/20 05:14:37;;;;;;;;;8.50;7.25;;;;;4.74;100.00;102665.16;5116867;27;45410;-82
2022/01/20 05:17:03;;;;;;;;;3.00;2.00;;;;;4.71;100.00;102662.56;5116747;27;44993;-83
2022/01/20 05:19:31;;;;;;;;;10.25;8.00;;;;;4.69;100.00;102656.44;5119318;27;45467;-84
2022/01/20 05:21:57;;;;;;;;;7.75;7.75;;;;;4.71;100.00;102665.19;5100253;27;44852;-80
2022/01/20 05:24:23;;;;;;;;;13.33;9.67;;;;;4.69;100.00;102661.72;5118931;27;44832;-83
2022/01/20 05:26:53;;;;;;;;;5.33;4.67;;;;;4.70;100.00;102663.44;5117941;27;44704;-82
2022/01/20 05:29:21;;;;;;;;;7.67;6.00;;;;;4.67;100.00;102666.09;5118963;27;45225;-83
2022/01/20 05:31:47;;;;;;;;;7.67;6.33;;;;;4.68;100.00;102662.59;5124714;27;44729;-82
2022/01/20 05:34:12;;;;;;;;;10.25;7.00;;;;;4.68;100.00;102664.34;5123795;27;45326;-81
2022/01/20 05:36:38;;;;;;;;;15.50;10.00;;;;;4.67;100.00;102675.78;5128092;27;44848;-82
2022/01/20 05:39:04;;;;;;;;;12.00;8.75;;;;;4.67;100.00;102675.78;5128858;27;45322;-83
2022/01/20 05:41:31;;;;;;;;;9.25;7.75;;;;;4.67;100.00;102678.41;5127834;27;44802;-83
2022/01/20 05:43:57;;;;;;;;;15.00;9.00;;;;;4.68;100.00;102681.00;5119206;27;44815;-84
2022/01/20 05:46:33;;;;;;;;;11.00;9.75;;;;;4.68;100.00;102691.53;5099481;27;44971;-84
2022/01/20 05:49:08;;;;;;;;;9.50;7.50;;;;;4.67;100.00;102689.81;5121729;27;45498;-83
2022/01/20 05:51:34;;;;;;;;;8.50;7.50;;;;;4.69;100.00;102689.78;5104026;27;45186;-83
2022/01/20 05:53:59;;;;;;;;;10.50;8.00;;;;;4.71;100.00;102698.53;5105465;27;44803;-83
2022/01/20 05:56:24;;;;;;;;;14.75;8.00;;;;;4.68;100.00;102696.81;5124443;27;45348;-83
2022/01/20 05:58:51;;;;;;;;;15.67;9.33;;;;;4.71;100.00;102691.50;5123928;27;45227;-83
2022/01/20 06:01:17;;;;;;;;;12.00;11.00;;;;;4.67;100.00;102695.06;5122392;27;45500;-82
2022/01/20 06:03:42;;;;;;;;;11.25;10.25;;;;;4.68;100.00;102699.44;5103699;27;45397;-83
2022/01/20 06:06:10;;;;;;;;;9.25;5.25;;;;;4.73;100.00;102699.38;5127374;27;44760;-84
2022/01/20 06:08:36;;;;;;;;;9.50;7.00;;;;;4.72;100.00;102708.19;5107600;27;45291;-83
2022/01/20 06:11:02;;;;;;;;;8.00;5.25;;;;;4.74;100.00;102706.38;5120585;27;44783;-83
2022/01/20 06:13:28;;;;;;;;;8.00;6.67;;;;;4.74;100.00;102702.03;5120671;27;44803;-84
2022/01/20 06:15:54;;;;;;;;;13.50;9.75;;;;;4.76;100.00;102708.13;5120883;27;45390;-84
2022/01/20 06:18:20;;;;;;;;;9.75;7.25;;;;;4.75;100.00;102702.91;5119533;27;45359;-82
2022/01/20 06:20:46;;;;;;;;;11.67;7.33;;;;;4.73;100.00;102708.16;5121617;27;45420;-83
2022/01/20 06:23:11;;;;;;;;;11.67;8.00;;;;;4.72;100.00;102706.41;5123543;27;44824;-83
2022/01/20 06:25:37;;;;;;;;;8.50;6.75;;;;;4.69;100.00;102714.38;5122001;27;44811;-83
2022/01/20 06:28:03;;;;;;;;;7.33;5.33;;;;;4.69;100.00;102709.09;5123248;27;45024;-83
2022/01/20 06:30:29;;;;;;;;;10.75;8.50;;;;;4.69;100.00;102705.56;5123317;27;45318;-84
2022/01/20 06:32:55;;;;;;;;;5.75;4.75;;;;;4.69;100.00;102716.09;5105104;27;45390;-82
2022/01/20 06:35:21;;;;;;;;;7.50;4.00;;;;;4.65;100.00;102707.38;5125472;27;44892;-86
2022/01/20 06:37:46;;;;;;;;;7.50;7.00;;;;;4.64;100.00;102716.16;5126395;27;45580;-84
2022/01/20 06:40:13;;;;;;;;;7.50;4.00;;;;;4.63;100.00;102712.66;5125149;27;44789;-85
2022/01/20 06:42:39;;;;;;;;;5.75;4.75;;;;;4.64;100.00;102730.22;5126606;27;45333;-85
2022/01/20 06:45:06;;;;;;;;;8.25;7.00;;;;;4.65;100.00;102731.06;5127835;27;44817;-84
2022/01/20 06:47:31;;;;;;;;;4.25;4.00;;;;;4.66;100.00;102731.94;5121623;27;45411;-84
2022/01/20 06:49:57;;;;;;;;;10.75;7.75;;;;;4.64;100.00;102727.56;5120628;27;45468;-84
2022/01/20 06:52:22;;;;;;;;;9.25;7.00;;;;;4.62;100.00;102737.22;5119561;27;44801;-84
2022/01/20 06:54:48;;;;;;;;;5.00;4.50;;;;;4.59;100.00;102726.75;5101247;27;44933;-83
2022/01/20 06:57:13;;;;;;;;;7.50;7.50;;;;;4.58;100.00;102732.00;5100631;27;45403;-84
2022/01/20 06:59:39;;;;;;;;;7.50;7.00;;;;;4.58;100.00;102747.81;5119868;27;44692;-87
2022/01/20 07:02:04;;;;;;;;;8.00;6.00;;;;;4.58;100.00;102756.56;5103914;27;44654;-88
2022/01/20 07:04:32;;;;;;;;;7.25;5.75;;;;;4.55;100.00;102755.75;5106172;27;44840;-87
2022/01/20 07:06:57;;;;;;;;;9.50;6.00;;;;;4.56;100.00;102758.34;5104313;27;46594;-87
2022/01/20 07:09:23;;;;;;;;;9.75;6.25;;;;;4.54;100.00;102769.75;5105173;27;45111;-87
2022/01/20 07:11:49;;;;;;;;;19.75;8.00;;;;;4.55;100.00;102774.16;5124588;27;44807;-86
2022/01/20 07:14:14;;;;;;;;;8.25;6.50;;;;;4.56;100.00;102783.81;5123814;27;44834;-89
2022/01/20 07:16:40;;;;;;;;;7.00;4.25;;;;;4.53;100.00;102792.59;5104592;27;45249;-88
2022/01/20 07:19:05;;;;;;;;;10.75;4.00;;;;;4.53;100.00;102800.47;5126464;27;45278;-87
2022/01/20 07:21:31;;;;;;;;;6.25;5.50;;;;;4.50;100.00;102800.53;5111246;27;45019;-88
2022/01/20 07:23:56;;;;;;;;;5.25;5.25;;;;;4.46;100.00;102800.56;5117321;27;45458;-87
2022/01/20 07:26:22;;;;;;;;;7.50;6.00;;;;;4.46;100.00;102808.47;5129461;27;45126;-88
2022/01/20 07:28:47;;;;;;;;;10.00;5.75;;;;;4.43;100.00;102811.97;5108621;27;44869;-84
2022/01/20 07:31:14;;;;;;;;;5.00;5.00;;;;;4.42;100.00;102812.00;5107600;27;44718;-86
2022/01/20 07:33:39;;;;;;;;;9.00;8.00;;;;;4.39;100.00;102824.28;5133582;27;44803;-85
2022/01/20 07:36:05;;;;;;;;;14.25;8.25;;;;;4.38;100.00;102814.63;5111683;27;45013;-86
2022/01/20 07:38:31;;;;;;;;;13.25;9.00;;;;;4.39;100.00;102826.91;5128630;27;44826;-85
2022/01/20 07:40:57;;;;;;;;;16.75;7.75;;;;;4.37;100.00;102831.31;5132770;27;45239;-84
2022/01/20 07:43:22;;;;;;;;;17.00;4.50;;;;;4.39;100.00;102829.53;5129836;27;44828;-84
2022/01/20 07:45:48;;;;;;;;;8.00;7.00;;;;;4.38;100.00;102838.31;5102093;27;46078;-84
2022/01/20 07:48:13;;;;;;;;;16.25;9.25;;;;;4.43;100.00;102832.16;5120955;27;44809;-85
2022/01/20 07:50:39;;;;;;;;;8.50;6.25;;;;;4.44;100.00;102824.25;5121175;27;44857;-86
2022/01/20 07:53:04;;;;;;;;;10.00;8.25;;;;;4.44;100.00;102816.34;5122067;27;45407;-84
2022/01/20 07:55:30;;;;;;;;;8.25;5.50;;;;;4.47;100.00;102812.84;5120538;27;45293;-83
2022/01/20 07:57:56;;;;;;;;;9.75;8.00;;;;;4.47;100.00;102831.25;5128574;27;44811;-85
2022/01/20 08:00:21;;;;;;;;;24.00;11.25;;;;;4.51;100.00;102831.22;5125770;27;45320;-84
2022/01/20 08:02:47;;;;;;;;;8.50;8.00;;;;;4.52;100.00;102821.56;5127063;27;44847;-84
2022/01/20 08:05:13;;;;;;;;;19.00;11.25;;;;;4.59;100.00;102832.03;5129824;27;46028;-84
2022/01/20 08:07:40;;;;;;;;;11.75;7.00;;;;;4.63;100.00;102827.59;5116931;27;45285;-85
2022/01/20 08:10:07;;;;;;;;;9.00;8.00;;;;;4.71;100.00;102827.53;5101422;27;45367;-84
2022/01/20 08:12:33;;;;;;;;;9.00;4.00;;;;;4.73;100.00;102826.63;5101307;27;44936;-84
2022/01/20 08:14:59;;;;;;;;;7.75;4.00;;;;;4.80;100.00;102819.56;5100867;27;45489;-85
2022/01/20 08:17:26;;;;;;;;;11.75;9.75;;;;;4.82;100.00;102818.66;5098635;27;45459;-83
2022/01/20 08:19:52;;;;;;;;;17.50;7.50;;;;;4.95;100.00;102827.31;5097683;27;45407;-84
2022/01/20 08:22:17;;;;;;;;;11.50;9.50;;;;;5.00;100.00;102843.94;5079493;27;44831;-84
2022/01/20 08:24:43;;;;;;;;;11.00;8.00;;;;;5.11;100.00;102822.75;5082686;27;46708;-85
2022/01/20 08:27:09;;;;;;;;;15.75;10.75;;;;;5.13;100.00;102815.72;5103683;27;44755;-85
2022/01/20 08:29:35;;;;;;;;;16.50;13.00;;;;;5.20;100.00;102824.41;5083346;27;44905;-85
2022/01/20 08:32:00;;;;;;;;;14.50;9.00;;;;;5.22;100.00;102836.72;5079875;27;44908;-85
2022/01/20 08:34:26;;;;;;;;;12.50;9.00;;;;;5.22;100.00;102817.34;5078472;27;46450;-84
2022/01/20 08:36:55;;;;;;;;;15.00;12.75;;;;;5.18;100.00;102819.19;5097293;27;44748;-85
2022/01/20 08:41:57;;;;;;;;;19.75;9.75;;;;;5.13;100.00;102836.78;5077732;28;44820;-85
2022/01/20 08:44:22;;;;;;;;;14.75;10.75;;;;;5.10;100.00;102836.81;5084544;28;45422;-84
2022/01/20 08:46:49;;;;;;;;;12.67;9.33;;;;;5.13;100.00;102837.66;5091140;27;44698;-85
2022/01/20 08:49:14;;;;;;;;;9.00;7.75;;;;;5.21;100.00;102832.31;5097529;27;44698;-84
2022/01/20 08:51:40;;;;;;;;;13.75;9.50;;;;;5.22;100.00;102846.34;5078711;27;45316;-85
2022/01/20 08:54:06;;;;;;;;;15.50;14.00;;;;;5.19;100.00;102854.28;5097492;27;45100;-84
2022/01/20 08:56:34;;;;;;;;;15.50;11.50;;;;;5.18;100.00;102856.06;5097450;27;44722;-83
2022/01/20 08:59:01;;;;;;;;;16.33;13.33;;;;;5.14;100.00;102856.97;5097692;27;44809;-84
2022/01/20 09:01:26;;;;;;;;;16.00;11.75;;;;;5.21;100.00;102839.34;5079389;27;44791;-85
2022/01/20 09:03:51;;;;;;;;;15.00;11.67;;;;;5.20;100.00;102845.50;5097595;27;44995;-85
2022/01/20 09:06:17;;;;;;;;;14.67;12.33;;;;;5.27;100.00;102832.25;5080176;27;44732;-84
2022/01/20 09:08:42;;;;;;;;;14.25;7.25;;;;;5.23;100.00;102845.47;5097239;27;45171;-83
2022/01/20 09:11:18;;;;;;;;;18.75;14.25;;;;;5.15;100.00;102851.69;5097849;27;44827;-84
2022/01/20 09:16:28;;;;;;;;;19.33;10.33;;;;;5.28;100.00;102844.53;5097172;27;44768;-83
2022/01/20 09:18:53;;;;;;;;;20.33;12.00;;;;;5.37;100.00;102851.47;5079098;27;45287;-84
2022/01/20 09:21:22;;;;;;;;;13.00;11.33;;;;;5.40;100.00;102859.31;5079232;27;45302;-82
2022/01/20 09:23:47;;;;;;;;;16.67;12.67;;;;;5.41;100.00;102859.31;5101756;27;45219;-84
2022/01/20 09:26:13;;;;;;;;;17.00;13.75;;;;;5.52;100.00;102866.25;5111307;27;45241;-83
2022/01/20 09:28:39;;;;;;;;;11.75;10.00;;;;;5.54;100.00;102872.34;5093593;27;44819;-84
2022/01/20 09:31:04;;;;;;;;;18.75;15.00;;;;;5.60;100.00;102872.28;5110728;27;44704;-87
2022/01/20 09:33:30;;;;;;;;;22.25;15.50;;;;;5.65;100.00;102878.34;5093418;27;46868;-89
2022/01/20 09:35:57;;;;;;;;;13.00;10.50;;;;;5.73;100.00;102889.69;5111132;27;44754;-87
2022/01/20 09:38:22;;;;;;;;;18.00;15.33;;;;;5.80;100.00;102890.47;5090100;27;44723;-88
2022/01/20 09:40:49;;;;;;;;;22.00;17.00;;;;;5.82;100.00;102889.59;5109249;27;44999;-87
2022/01/20 09:43:18;;;;;;;;;18.33;16.00;;;;;5.93;100.00;102893.00;5089660;27;46847;-88
2022/01/20 09:45:48;;;;;;;;;21.00;17.67;;;;;6.01;100.00;102890.25;5087187;27;44887;-89
2022/01/20 09:48:15;;;;;;;;;18.25;15.75;;;;;6.10;100.00;102884.88;5088173;27;44704;-87
2022/01/20 09:50:40;;;;;;;;;18.00;13.50;;;;;6.07;100.00;102884.03;5106167;27;45458;-89
2022/01/20 09:53:06;;;;;;;;;24.25;14.00;;;;;6.08;100.00;102888.41;5104629;27;45131;-90
2022/01/20 09:55:32;;;;;;;;;18.00;16.00;;;;;6.03;100.00;102882.31;5087076;27;45300;-87
2022/01/20 09:57:58;;;;;;;;;16.50;14.25;;;;;6.10;100.00;102869.03;5105655;27;44904;-87
2022/01/20 10:00:24;;;;;;;;;12.25;12.00;;;;;6.10;100.00;102869.03;5104120;27;44860;-89
2022/01/20 10:03:16;;;;;;;;;14.75;11.00;;;;;6.10;100.00;102886.63;5103920;27;45495;-88
2022/01/20 10:05:48;;;;;;;;;11.00;9.00;;;;;6.06;100.00;102879.66;5085833;27;45063;-87
2022/01/20 10:08:26;;;;;;;;;16.50;12.75;;;;;5.98;100.00;102878.88;5091239;27;44777;-87
2022/01/20 10:11:10;;;;;;;;;18.00;14.25;;;;;5.99;100.00;102884.13;5108157;27;44737;-85
2022/01/20 10:13:42;;;;;;;;;17.75;12.50;;;;;6.11;100.00;102889.25;5105018;27;45176;-85
2022/01/20 10:16:16;;;;;;;;;12.25;11.25;;;;;6.19;100.00;102889.16;5115120;27;44851;-87
2022/01/20 10:18:50;;;;;;;;;14.00;13.50;;;;;6.20;100.00;102906.72;5090838;27;44754;-88
2022/01/20 10:21:17;;;;;;;;;19.50;16.75;;;;;6.23;100.00;102911.94;5105215;27;45247;-87
2022/01/20 10:23:44;;;;;;;;;15.25;11.50;;;;;6.38;100.00;102921.41;5106978;27;45228;-88
2022/01/20 10:26:18;;;;;;;;;17.25;14.00;;;;;6.50;100.00;102918.59;5106572;27;44791;-87
2022/01/20 10:29:13;;;;;;;;;16.00;12.50;;;;;6.35;100.00;102921.47;5098517;27;45410;-88
2022/01/20 10:31:42;;;;;;;;;19.75;17.00;;;;;6.42;100.00;102936.31;5111568;27;45235;-89
2022/01/20 10:34:34;;;;;;;;;17.25;15.25;;;;;6.43;100.00;102922.22;5107020;27;45423;-88
2022/01/20 10:37:24;;;;;;;;;11.50;11.50;;;;;6.52;100.00;102919.44;5105672;27;45283;-88
2022/01/20 10:39:50;;;;;;;;;12.00;12.00;;;;;6.55;100.00;102922.03;5088465;27;44793;-87
2022/01/20 10:42:20;;;;;;;;;14.00;10.00;;;;;6.59;100.00;102931.66;5084931;27;44820;-88
2022/01/20 10:44:47;;;;;;;;;19.75;16.75;;;;;6.53;100.00;102931.78;5102715;27;45226;-87
2022/01/20 10:47:24;;;;;;;;;20.25;16.00;;;;;6.69;100.00;102927.13;5082487;27;45197;-87
2022/01/20 10:49:50;;;;;;;;;5.50;5.50;;;;;6.80;100.00;102922.53;5103661;27;44801;-86
2022/01/20 10:52:18;;;;;;;;;27.00;16.75;;;;;6.74;100.00;102932.34;5110145;27;44739;-88
2022/01/20 10:54:50;;;;;;;;;17.75;14.00;;;;;6.83;100.00;102930.41;5105477;27;46385;-87
2022/01/20 10:57:16;;;;;;;;;13.00;13.00;;;;;6.82;100.00;102922.53;5083120;27;45370;-87
2022/01/20 10:59:49;;;;;;;;;12.00;9.25;;;;;6.89;100.00;102926.81;5101188;27;44838;-88
2022/01/20 11:02:18;;;;;;;;;18.00;13.50;;;;;6.88;100.00;102914.50;5098100;27;45417;-87
2022/01/20 11:04:43;;;;;;;;;17.25;15.75;;;;;6.86;100.00;102917.13;5098411;27;45042;-88
2022/01/20 11:07:09;;;;;;;;;14.50;11.75;;;;;6.92;100.00;102917.06;5099630;27;44735;-89
2022/01/20 11:09:39;;;;;;;;;19.50;18.50;;;;;6.93;100.00;102917.94;5120436;27;44773;-88
2022/01/20 11:12:05;;;;;;;;;16.50;14.25;;;;;6.87;100.00;102923.31;5119623;27;45447;-87
2022/01/20 11:14:33;;;;;;;;;14.25;10.75;;;;;6.82;100.00;102923.41;5119671;27;45015;-89
2022/01/20 11:17:00;;;;;;;;;18.50;13.25;;;;;6.85;100.00;102927.75;5118056;27;45464;-89
2022/01/20 11:19:26;;;;;;;;;12.50;10.50;;;;;6.86;100.00;102911.84;5122727;27;45358;-89
2022/01/20 11:22:04;;;;;;;;;19.25;14.50;;;;;6.80;100.00;102926.94;5104679;27;44859;-89
2022/01/20 11:24:30;;;;;;;;;19.50;15.00;;;;;6.86;100.00;102910.97;5121681;27;45110;-87
2022/01/20 11:26:57;;;;;;;;;20.50;15.75;;;;;6.91;100.00;102920.59;5124155;27;44759;-89
2022/01/20 11:29:37;;;;;;;;;21.00;13.75;;;;;7.09;100.00;102919.41;5129861;27;44853;-89
2022/01/20 11:32:14;;;;;;;;;10.25;9.25;;;;;7.11;100.00;102914.13;5130202;27;44769;-87
2022/01/20 11:34:39;;;;;;;;;10.00;5.75;;;;;7.06;100.00;102921.22;5130223;27;45064;-89
2022/01/20 11:37:09;;;;;;;;;8.25;6.50;;;;;6.99;100.00;102917.81;5103484;27;44872;-87
2022/01/20 11:39:34;;;;;;;;;14.25;11.75;;;;;7.07;100.00;102902.72;5120443;27;44705;-87
2022/01/20 11:42:01;;;;;;;;;9.00;6.25;;;;;7.06;100.00;102911.56;5121151;27;45133;-86
2022/01/20 11:44:29;;;;;;;;;8.75;8.75;;;;;7.25;100.00;102913.84;5105115;27;47470;-87
2022/01/20 11:47:05;;;;;;;;;10.25;10.00;;;;;7.31;100.00;102904.03;5121263;27;44733;-89
2022/01/20 11:49:36;;;;;;;;;15.75;11.50;;;;;7.42;100.00;102898.56;5120748;27;45314;-90
2022/01/20 11:52:02;;;;;;;;;3.00;3.00;;;;;7.51;100.00;102898.38;5104343;27;45262;-88
2022/01/20 11:54:32;;;;;;;;;17.00;8.25;;;;;7.56;100.00;102915.03;5105185;27;46611;-88
2022/01/20 11:57:13;;;;;;;;;11.50;8.25;;;;;7.59;100.00;102940.53;5101288;27;44757;-88
2022/01/20 11:59:54;;;;;;;;;12.50;10.00;;;;;7.38;100.00;102900.38;5124651;27;45447;-89
2022/01/20 12:02:39;;;;;;;;;10.50;7.00;;;;;7.43;100.00;102901.16;5100109;27;45290;-87
2022/01/20 12:05:28;;;;;;;;;10.75;7.75;;;;;7.62;100.00;102903.44;5119871;27;45334;-89
2022/01/20 12:08:10;;;;;;;;;4.00;3.75;;;;;7.64;100.00;102902.53;5095301;27;44889;-88
2022/01/20 12:10:36;;;;;;;;;6.20;5.60;;;;;7.55;100.00;102923.88;5088100;27;45541;-87
2022/01/20 12:13:09;;;;;;;;;6.50;5.75;;;;;7.56;100.00;102919.44;5125261;27;45264;-89
2022/01/20 12:15:47;;;;;;;;;7.00;5.25;;;;;7.52;100.00;102918.63;5126266;27;45225;-89
2022/01/20 12:18:13;;;;;;;;;5.20;5.20;;;;;7.43;100.00;102919.66;5108292;27;44749;-89
2022/01/20 12:20:39;;;;;;;;;3.75;3.00;;;;;7.30;100.00;102923.47;5121565;27;44745;-88
2022/01/20 12:23:04;;;;;;;;;6.00;3.25;;;;;7.26;100.00;102929.69;5123925;27;44871;-87
2022/01/20 12:25:29;;;;;;;;;6.25;3.50;;;;;7.18;100.00;102923.66;5106778;27;45473;-87
2022/01/20 12:28:04;;;;;;;;;5.50;4.50;;;;;7.25;100.00;102922.63;5106897;27;44825;-88